»·PEaware :: N77RK KPSP-KPSP

N77RK :: KPSP-KPSP

FLIGHT INFORMATION

Flight Status: Arrived
Operator: Privately registered:
United States
More flights under this callsign
Pilot: Anonymous 15391 (15391)
Aircraft: CIRRUS SR-20
(SR20)
More flights by this aircraft type
Origin: KPSP Palm Springs Intl
United States
Destination: KPSP Palm Springs Intl
United States
More flights between these airports :: More routes between these airports
Route: +
File this flight plan on PilotEdge
Remarks:
Altitude:
(Current/Filed)
9,500ft
Speed:
(Current/Filed)
0kts
Departed: 09-Dec-17 09:23 AM
Arrived: 09-Dec-17 12:40 PM
Distance/Time
Traveled:
0nm/3:17
Distance/Time
To Go:
Arrived

Flight Plot

Page will automatically refresh every two minutes.


Map Options




Map Legend


Flown Route
Filed Route
Departure Airport
Arrival Airport
Navaid (VOR, NDB)
Fix

Horizontal Profiles

Position Reports

Time Latitude Longitude Heading Altitude Ground
Speed
09-Dec-17 09:19 33.825352 -116.509542 90 479ft 0kts
09-Dec-17 09:20 33.825352 -116.509542 90 479ft 0kts
09-Dec-17 09:21 33.825352 -116.509536 89 479ft 0kts
09-Dec-17 09:22 33.825355 -116.508066 89 479ft 7kts
09-Dec-17 09:23 33.825333 -116.506486 86 479ft 2kts
09-Dec-17 09:24 33.824162 -116.504775 143 479ft 12kts
09-Dec-17 09:25 33.823240 -116.503219 67 479ft 0kts
09-Dec-17 09:26 33.823240 -116.503219 67 479ft 0kts
09-Dec-17 09:27 33.824169 -116.502756 322 479ft 12kts
09-Dec-17 09:28 33.838796 -116.516481 317 1080ft 82kts
09-Dec-17 09:29 33.858420 -116.539266 313 1930ft 100kts
09-Dec-17 09:30 33.878472 -116.563867 313 2820ft 105kts
09-Dec-17 09:31 33.898991 -116.589019 313 3648ft 106kts
09-Dec-17 09:32 33.917438 -116.616391 291 4424ft 108kts
09-Dec-17 09:33 33.928433 -116.649927 290 5128ft 108kts
09-Dec-17 09:34 33.939471 -116.683684 290 5683ft 110kts
09-Dec-17 09:35 33.950641 -116.717834 290 6245ft 111kts
09-Dec-17 09:36 33.961902 -116.752246 290 6797ft 112kts
09-Dec-17 09:37 33.973294 -116.787026 291 7332ft 112kts
09-Dec-17 09:38 33.984847 -116.822291 291 7810ft 115kts
09-Dec-17 09:39 33.996537 -116.857958 291 8404ft 115kts
09-Dec-17 09:40 34.008271 -116.893738 291 8943ft 115kts
09-Dec-17 09:41 34.020002 -116.929512 291 9536ft 115kts
09-Dec-17 09:42 34.032940 -116.968871 291 9635ft 139kts
09-Dec-17 09:43 34.053425 -117.010171 311 9633ft 150kts
09-Dec-17 09:44 34.081221 -117.047841 311 9633ft 152kts
09-Dec-17 09:45 34.108866 -117.085266 311 9633ft 152kts
09-Dec-17 09:46 34.136294 -117.122432 311 9632ft 152kts
09-Dec-17 09:47 34.164377 -117.160463 311 9620ft 153kts
09-Dec-17 09:48 34.193335 -117.199670 311 9495ft 155kts
09-Dec-17 09:49 34.221254 -117.237806 311 9523ft 151kts
09-Dec-17 09:51 34.249310 -117.275813 311 9522ft 152kts
09-Dec-17 09:52 34.277332 -117.313771 311 9522ft 152kts
09-Dec-17 09:53 34.305528 -117.351904 311 9522ft 152kts
09-Dec-17 09:54 34.333666 -117.389964 311 9522ft 152kts
09-Dec-17 09:55 34.361788 -117.428000 311 9522ft 152kts
09-Dec-17 09:56 34.390010 -117.466176 311 9522ft 152kts
09-Dec-17 09:57 34.418158 -117.504235 311 9522ft 152kts
09-Dec-17 09:58 34.446382 -117.542395 311 9522ft 152kts
09-Dec-17 09:59 34.474560 -117.580484 311 9522ft 152kts
09-Dec-17 10:00 34.495878 -117.623855 292 9479ft 154kts
09-Dec-17 10:01 34.524809 -117.655902 318 9441ft 153kts
09-Dec-17 10:02 34.553646 -117.693857 309 9475ft 153kts
09-Dec-17 10:03 34.579902 -117.734770 306 9496ft 156kts
09-Dec-17 10:04 34.605712 -117.777077 305 9498ft 156kts
09-Dec-17 10:05 34.631048 -117.819075 305 9496ft 153kts
09-Dec-17 10:06 34.655902 -117.860456 305 9496ft 152kts
09-Dec-17 10:07 34.680809 -117.902007 305 9496ft 152kts
09-Dec-17 10:08 34.700603 -117.946902 291 9496ft 152kts
09-Dec-17 10:09 34.716316 -117.994389 291 9496ft 152kts
09-Dec-17 10:10 34.731475 -118.041683 291 9522ft 150kts
09-Dec-17 10:11 34.742717 -118.076910 291 9523ft 149kts
09-Dec-17 10:12 34.757779 -118.124022 291 9523ft 149kts
09-Dec-17 10:13 34.772830 -118.171078 291 9523ft 149kts
09-Dec-17 10:14 34.787898 -118.218161 291 9523ft 149kts
09-Dec-17 10:15 34.802993 -118.265188 291 9514ft 151kts
09-Dec-17 10:16 34.820009 -118.312056 301 9496ft 152kts
09-Dec-17 10:17 34.842396 -118.355736 301 9496ft 152kts
09-Dec-17 10:18 34.864040 -118.397880 301 9496ft 152kts
09-Dec-17 10:19 34.884047 -118.439493 301 9522ft 151kts
09-Dec-17 10:20 34.905595 -118.484713 301 9309ft 159kts
09-Dec-17 10:21 34.928856 -118.531324 302 8826ft 164kts
09-Dec-17 10:22 34.952704 -118.578525 302 8382ft 165kts
09-Dec-17 10:23 34.976587 -118.625781 302 7896ft 164kts
09-Dec-17 10:24 35.000129 -118.672346 301 7435ft 164kts
09-Dec-17 10:25 35.023994 -118.719517 301 6969ft 163kts
09-Dec-17 10:26 35.047739 -118.766427 301 6472ft 163kts
09-Dec-17 10:27 35.071415 -118.813198 301 5980ft 162kts
09-Dec-17 10:28 35.094347 -118.858490 301 5531ft 162kts
09-Dec-17 10:29 35.127202 -118.887831 351 5049ft 156kts
09-Dec-17 10:30 35.164871 -118.899604 322 4577ft 135kts
09-Dec-17 10:31 35.193580 -118.927746 334 4067ft 129kts
09-Dec-17 10:32 35.227063 -118.935683 351 3589ft 127kts
09-Dec-17 10:33 35.261796 -118.942632 351 3168ft 127kts
09-Dec-17 10:33 35.290557 -118.948386 351 2818ft 126kts
09-Dec-17 10:35 35.329713 -118.956229 352 2436ft 99kts
09-Dec-17 10:35 35.350911 -118.960589 350 2041ft 92kts
09-Dec-17 10:36 35.365627 -118.980431 266 1816ft 96kts
09-Dec-17 10:37 35.347944 -118.998196 182 1163ft 95kts
09-Dec-17 10:39 35.323054 -118.995663 165 381ft 66kts
09-Dec-17 10:40 35.302688 -118.986450 95 1240ft 93kts
09-Dec-17 10:40 35.322685 -118.979316 353 1907ft 105kts
09-Dec-17 10:41 35.350324 -118.986071 352 2076ft 111kts
09-Dec-17 10:42 35.374357 -118.995441 281 1928ft 109kts
09-Dec-17 10:43 35.353613 -118.999308 169 1378ft 83kts
09-Dec-17 10:44 35.331490 -118.996735 172 508ft 82kts
09-Dec-17 10:45 35.321054 -118.995562 175 376ft 9kts
09-Dec-17 10:46 35.320914 -118.996388 355 376ft 16kts
09-Dec-17 10:47 35.323348 -118.996946 354 378ft 12kts
09-Dec-17 10:48 35.325269 -118.997614 265 380ft 0kts
09-Dec-17 10:49 35.325269 -118.997614 265 380ft 0kts
09-Dec-17 10:50 35.325269 -118.997614 265 380ft 0kts
09-Dec-17 10:51 35.325269 -118.997614 265 380ft 0kts
09-Dec-17 10:52 35.325269 -118.997614 265 380ft 0kts
09-Dec-17 10:53 35.325269 -118.997614 265 380ft 0kts
09-Dec-17 10:54 35.325269 -118.997614 265 380ft 0kts
09-Dec-17 10:55 35.325269 -118.997614 265 380ft 0kts
09-Dec-17 10:56 35.325269 -118.997614 265 380ft 0kts
09-Dec-17 10:57 35.325269 -118.997614 265 380ft 0kts
09-Dec-17 10:58 35.325356 -118.997680 88 380ft 3kts
09-Dec-17 10:59 35.327318 -118.997419 353 380ft 0kts
09-Dec-17 11:00 35.328626 -118.997275 353 381ft 8kts
09-Dec-17 11:01 35.330248 -118.997390 64 382ft 0kts
09-Dec-17 11:02 35.324536 -118.996081 172 415ft 80kts
09-Dec-17 11:03 35.305032 -118.980457 132 1403ft 98kts
09-Dec-17 11:04 35.285265 -118.955228 128 2402ft 104kts
09-Dec-17 11:05 35.274713 -118.922082 105 3229ft 106kts
09-Dec-17 11:06 35.267654 -118.886711 102 4114ft 108kts
09-Dec-17 11:07 35.262655 -118.850415 98 4956ft 104kts
09-Dec-17 11:08 35.254837 -118.817715 115 5765ft 103kts
09-Dec-17 11:09 35.241912 -118.786585 118 6496ft 101kts
09-Dec-17 11:10 35.221120 -118.763961 138 7164ft 100kts
09-Dec-17 11:11 35.199159 -118.742942 138 7713ft 101kts
09-Dec-17 11:12 35.176987 -118.721637 138 8237ft 103kts
09-Dec-17 11:13 35.153269 -118.698635 138 8490ft 124kts
09-Dec-17 11:14 35.124553 -118.670312 138 8490ft 139kts
09-Dec-17 11:15 35.094112 -118.640095 138 8485ft 142kts
09-Dec-17 11:16 35.063967 -118.610311 138 8487ft 139kts
09-Dec-17 11:17 35.033923 -118.580605 138 8485ft 140kts
09-Dec-17 11:18 35.004524 -118.550105 131 8483ft 138kts
09-Dec-17 11:19 34.978168 -118.515893 131 8484ft 138kts
09-Dec-17 11:20 34.951936 -118.481812 131 8484ft 138kts
09-Dec-17 11:21 34.925683 -118.447667 131 8493ft 138kts
09-Dec-17 11:22 34.899863 -118.414089 131 8485ft 137kts
09-Dec-17 11:23 34.873815 -118.379943 131 8487ft 143kts
09-Dec-17 11:24 34.848022 -118.343497 106 8488ft 148kts
09-Dec-17 11:25 34.838352 -118.294345 101 8487ft 150kts
09-Dec-17 11:26 34.828816 -118.244600 101 8486ft 151kts
09-Dec-17 11:27 34.819352 -118.194649 102 8485ft 151kts
09-Dec-17 11:28 34.810684 -118.144227 101 8487ft 153kts
09-Dec-17 11:29 34.801546 -118.094412 114 8483ft 153kts
09-Dec-17 11:30 34.779340 -118.050002 121 8487ft 153kts
09-Dec-17 11:31 34.756897 -118.005849 121 8487ft 153kts
09-Dec-17 11:32 34.746935 -117.956691 91 8460ft 154kts
09-Dec-17 11:33 34.745654 -117.904910 91 8459ft 153kts
09-Dec-17 11:34 34.744384 -117.853153 91 8460ft 153kts
09-Dec-17 11:35 34.743138 -117.801636 91 8460ft 153kts
09-Dec-17 11:36 34.730284 -117.753287 113 8460ft 153kts
09-Dec-17 11:37 34.713676 -117.705557 111 8460ft 153kts
09-Dec-17 11:38 34.698000 -117.657620 111 8459ft 153kts
09-Dec-17 11:39 34.682482 -117.609344 110 8460ft 153kts
09-Dec-17 11:40 34.667245 -117.561753 110 8534ft 150kts
09-Dec-17 11:41 34.652014 -117.514245 110 8541ft 152kts
09-Dec-17 11:42 34.636634 -117.466332 110 8541ft 153kts
09-Dec-17 11:43 34.621089 -117.418007 110 8504ft 154kts
09-Dec-17 11:44 34.605582 -117.369842 110 8504ft 153kts
09-Dec-17 11:45 34.590519 -117.323131 111 8504ft 153kts
09-Dec-17 11:46 34.575074 -117.275331 111 8504ft 153kts
09-Dec-17 11:47 34.559537 -117.227293 111 8504ft 153kts
09-Dec-17 11:48 34.543988 -117.179296 111 8504ft 153kts
09-Dec-17 11:49 34.528451 -117.131470 111 8504ft 153kts
09-Dec-17 11:50 34.512882 -117.083553 111 8505ft 153kts
09-Dec-17 11:51 34.497250 -117.035541 111 8504ft 153kts
09-Dec-17 11:52 34.481550 -116.987559 110 8484ft 155kts
09-Dec-17 11:53 34.465598 -116.938530 110 8450ft 157kts
09-Dec-17 11:54 34.449498 -116.889307 111 8450ft 157kts
09-Dec-17 11:55 34.433397 -116.840207 111 8450ft 157kts
09-Dec-17 11:56 34.417265 -116.791088 111 8453ft 157kts
09-Dec-17 11:57 34.401122 -116.741975 111 8482ft 156kts
09-Dec-17 11:58 34.384797 -116.692631 108 8515ft 160kts
09-Dec-17 11:59 34.368421 -116.642944 107 8514ft 157kts
09-Dec-17 12:00 34.352597 -116.594820 109 8513ft 151kts
09-Dec-17 12:01 34.337002 -116.547489 111 8515ft 153kts
09-Dec-17 12:02 34.321110 -116.499663 111 8396ft 154kts
09-Dec-17 12:04 34.305512 -116.452611 111 7927ft 150kts
09-Dec-17 12:05 34.290150 -116.406183 111 7481ft 148kts
09-Dec-17 12:06 34.269406 -116.364016 130 7082ft 148kts
09-Dec-17 12:07 34.242495 -116.327426 131 6597ft 147kts
09-Dec-17 12:08 34.215312 -116.290468 131 6136ft 146kts
09-Dec-17 12:09 34.188467 -116.253962 131 5652ft 142kts
09-Dec-17 12:10 34.169936 -116.217585 101 5185ft 125kts
09-Dec-17 12:11 34.165156 -116.177141 91 4683ft 121kts
09-Dec-17 12:12 34.164262 -116.135905 91 4212ft 134kts
09-Dec-17 12:13 34.163202 -116.089390 91 3747ft 141kts
09-Dec-17 12:14 34.162116 -116.041913 91 3243ft 139kts
09-Dec-17 12:15 34.161153 -115.999082 91 3015ft 126kts
09-Dec-17 12:16 34.159804 -115.959138 93 3050ft 115kts
09-Dec-17 12:17 34.157767 -115.921340 94 3167ft 114kts
09-Dec-17 12:18 34.156934 -115.883604 89 3230ft 114kts
09-Dec-17 12:19 34.139912 -115.868453 223 3284ft 109kts
09-Dec-17 12:20 34.134256 -115.898940 270 2758ft 82kts
09-Dec-17 12:21 34.134446 -115.926278 271 2022ft 79kts
09-Dec-17 12:22 34.134950 -115.941559 357 1812ft 14kts
09-Dec-17 12:23 34.135261 -115.935388 89 1780ft 7kts
09-Dec-17 12:24 34.134406 -115.942211 266 1845ft 78kts
09-Dec-17 12:25 34.135276 -115.969545 273 2616ft 98kts
09-Dec-17 12:26 34.137868 -116.004210 270 3461ft 116kts
09-Dec-17 12:27 34.137434 -116.048222 261 3740ft 135kts
09-Dec-17 12:28 34.118745 -116.082314 229 4775ft 117kts
09-Dec-17 12:29 34.095835 -116.111000 219 5586ft 116kts
09-Dec-17 12:30 34.070494 -116.136427 215 6358ft 118kts
09-Dec-17 12:31 34.045262 -116.164684 225 6921ft 130kts
09-Dec-17 12:32 34.020962 -116.197628 226 6695ft 128kts
09-Dec-17 12:33 33.992122 -116.222303 200 6206ft 137kts
09-Dec-17 12:34 33.957867 -116.239463 203 5560ft 127kts
09-Dec-17 12:35 33.926008 -116.256137 200 4909ft 122kts
09-Dec-17 12:36 33.896806 -116.270221 200 4408ft 112kts
09-Dec-17 12:37 33.868269 -116.284438 196 3885ft 110kts
09-Dec-17 12:38 33.841657 -116.304432 216 3247ft 117kts
09-Dec-17 12:39 33.817212 -116.329932 229 2735ft 119kts
09-Dec-17 12:40 33.797486 -116.359049 230 2343ft 94kts
09-Dec-17 12:41 33.784691 -116.385253 236 2455ft 99kts
09-Dec-17 12:42 33.772114 -116.416172 273 2614ft 115kts
09-Dec-17 12:43 33.776229 -116.455318 302 2243ft 123kts
09-Dec-17 12:44 33.797684 -116.476128 318 1428ft 90kts
09-Dec-17 12:45 33.816248 -116.492918 321 716ft 76kts
09-Dec-17 12:46 33.830346 -116.505398 330 479ft 13kts
09-Dec-17 12:47 33.831213 -116.506849 232 479ft 0kts
09-Dec-17 12:48 33.830224 -116.507202 180 479ft 10kts
09-Dec-17 12:49 33.826608 -116.506911 155 479ft 15kts
09-Dec-17 12:49 33.825501 -116.509475 286 479ft 8kts
09-Dec-17 12:51 33.825367 -116.509328 82 479ft 0kts
09-Dec-17 12:51 33.825367 -116.509328 82 479ft 0kts

Navigation Log

Ident Type
1. KPSP Airport
2. KPSP Airport